sensor_id;sensor_type;location;lat;lon;timestamp;pressure;altitude;pressure_sealevel;temperature;humidity
66887;BME280;67239;51.680;5.976;2023-01-28T00:01:15;102814.78;;;2.76;74.56
66887;BME280;67239;51.680;5.976;2023-01-28T00:03:43;102810.34;;;2.73;75.02
66887;BME280;67239;51.680;5.976;2023-01-28T00:06:12;102815.59;;;2.75;75.08
66887;BME280;67239;51.680;5.976;2023-01-28T00:08:41;102813.00;;;2.75;75.07
66887;BME280;67239;51.680;5.976;2023-01-28T00:11:10;102814.72;;;2.74;75.21
66887;BME280;67239;51.680;5.976;2023-01-28T00:13:39;102809.69;;;2.79;74.93
66887;BME280;67239;51.680;5.976;2023-01-28T00:16:07;102813.94;;;2.77;75.15
66887;BME280;67239;51.680;5.976;2023-01-28T00:18:35;102810.38;;;2.75;75.11
66887;BME280;67239;51.680;5.976;2023-01-28T00:21:09;102811.25;;;2.74;75.25
66887;BME280;67239;51.680;5.976;2023-01-28T00:23:39;102816.41;;;2.72;75.62
66887;BME280;67239;51.680;5.976;2023-01-28T00:26:11;102825.09;;;2.73;75.55
66887;BME280;67239;51.680;5.976;2023-01-28T00:28:42;102820.06;;;2.77;74.98
66887;BME280;67239;51.680;5.976;2023-01-28T00:31:16;102814.72;;;2.74;75.02
66887;BME280;67239;51.680;5.976;2023-01-28T00:33:53;102815.69;;;2.76;74.53
66887;BME280;67239;51.680;5.976;2023-01-28T00:36:23;102822.50;;;2.73;74.68
66887;BME280;67239;51.680;5.976;2023-01-28T00:38:54;102821.59;;;2.72;74.39
66887;BME280;67239;51.680;5.976;2023-01-28T00:41:25;102822.34;;;2.68;74.96
66887;BME280;67239;51.680;5.976;2023-01-28T00:43:53;102823.19;;;2.67;74.95
66887;BME280;67239;51.680;5.976;2023-01-28T00:46:21;102831.16;;;2.72;74.43
66887;BME280;67239;51.680;5.976;2023-01-28T00:48:49;102834.47;;;2.68;74.49
66887;BME280;67239;51.680;5.976;2023-01-28T00:51:18;102844.88;;;2.68;74.34
66887;BME280;67239;51.680;5.976;2023-01-28T00:53:48;102849.16;;;2.66;74.55
66887;BME280;67239;51.680;5.976;2023-01-28T00:56:16;102849.16;;;2.66;74.89
66887;BME280;67239;51.680;5.976;2023-01-28T00:58:45;102843.13;;;2.67;74.54
66887;BME280;67239;51.680;5.976;2023-01-28T01:01:16;102844.09;;;2.70;74.24
66887;BME280;67239;51.680;5.976;2023-01-28T01:03:46;102851.00;;;2.68;73.76
66887;BME280;67239;51.680;5.976;2023-01-28T01:06:14;102843.91;;;2.64;72.60
66887;BME280;67239;51.680;5.976;2023-01-28T01:08:42;102841.84;;;2.55;73.07
66887;BME280;67239;51.680;5.976;2023-01-28T01:11:16;102831.34;;;2.52;73.11
66887;BME280;67239;51.680;5.976;2023-01-28T01:13:49;102827.69;;;2.47;73.36
66887;BME280;67239;51.680;5.976;2023-01-28T01:16:25;102829.41;;;2.46;73.91
66887;BME280;67239;51.680;5.976;2023-01-28T01:18:55;102829.34;;;2.45;74.36
66887;BME280;67239;51.680;5.976;2023-01-28T01:21:24;102835.50;;;2.47;74.55
66887;BME280;67239;51.680;5.976;2023-01-28T01:23:54;102830.34;;;2.48;74.63
66887;BME280;67239;51.680;5.976;2023-01-28T01:26:22;102835.59;;;2.50;74.03
66887;BME280;67239;51.680;5.976;2023-01-28T01:28:50;102823.47;;;2.51;73.92
66887;BME280;67239;51.680;5.976;2023-01-28T01:31:19;102826.97;;;2.51;73.87
66887;BME280;67239;51.680;5.976;2023-01-28T01:33:49;102832.09;;;2.49;74.09
66887;BME280;67239;51.680;5.976;2023-01-28T01:36:17;102830.25;;;2.45;74.45
66887;BME280;67239;51.680;5.976;2023-01-28T01:38:46;102835.44;;;2.45;74.60
66887;BME280;67239;51.680;5.976;2023-01-28T01:41:28;102834.53;;;2.45;74.59
66887;BME280;67239;51.680;5.976;2023-01-28T01:44:02;102832.06;;;2.48;74.50
66887;BME280;67239;51.680;5.976;2023-01-28T01:46:56;102841.53;;;2.46;74.24
66887;BME280;67239;51.680;5.976;2023-01-28T01:49:26;102835.50;;;2.47;74.19
66887;BME280;67239;51.680;5.976;2023-01-28T01:52:07;102845.03;;;2.46;73.83
66887;BME280;67239;51.680;5.976;2023-01-28T01:54:42;102841.53;;;2.46;73.88
66887;BME280;67239;51.680;5.976;2023-01-28T01:57:15;102838.88;;;2.44;73.89
66887;BME280;67239;51.680;5.976;2023-01-28T01:59:49;102838.00;;;2.44;74.05
66887;BME280;67239;51.680;5.976;2023-01-28T02:02:16;102835.28;;;2.41;74.32
66887;BME280;67239;51.680;5.976;2023-01-28T02:04:43;102834.47;;;2.42;74.41
66887;BME280;67239;51.680;5.976;2023-01-28T02:07:15;102838.84;;;2.43;74.21
66887;BME280;67239;51.680;5.976;2023-01-28T02:09:45;102836.13;;;2.40;74.56
66887;BME280;67239;51.680;5.976;2023-01-28T02:14:55;102842.19;;;2.40;74.67
66887;BME280;67239;51.680;5.976;2023-01-28T02:17:28;102844.78;;;2.40;74.87
66887;BME280;67239;51.680;5.976;2023-01-28T02:19:58;102851.78;;;2.41;74.40
66887;BME280;67239;51.680;5.976;2023-01-28T02:28:42;102841.16;;;2.35;75.61
66887;BME280;67239;51.680;5.976;2023-01-28T02:37:05;102838.59;;;2.37;75.31
66887;BME280;67239;51.680;5.976;2023-01-28T02:39:51;102839.38;;;2.34;75.44
66887;BME280;67239;51.680;5.976;2023-01-28T02:42:26;102840.25;;;2.35;75.37
66887;BME280;67239;51.680;5.976;2023-01-28T02:44:56;102837.66;;;2.35;75.38
66887;BME280;67239;51.680;5.976;2023-01-28T02:47:25;102837.50;;;2.30;75.38
66887;BME280;67239;51.680;5.976;2023-01-28T02:50:13;102840.16;;;2.31;75.46
66887;BME280;67239;51.680;5.976;2023-01-28T02:58:36;102843.66;;;2.32;75.72
66887;BME280;67239;51.680;5.976;2023-01-28T03:04:04;102843.47;;;2.27;75.47
66887;BME280;67239;51.680;5.976;2023-01-28T03:06:44;102842.53;;;2.25;75.63
66887;BME280;67239;51.680;5.976;2023-01-28T03:09:17;102848.47;;;2.21;75.89
66887;BME280;67239;51.680;5.976;2023-01-28T03:11:59;102847.72;;;2.25;75.61
66887;BME280;67239;51.680;5.976;2023-01-28T03:14:52;102856.31;;;2.23;75.72
66887;BME280;67239;51.680;5.976;2023-01-28T03:17:46;102853.72;;;2.23;75.21
66887;BME280;67239;51.680;5.976;2023-01-28T03:20:47;102851.91;;;2.20;75.63
66887;BME280;67239;51.680;5.976;2023-01-28T03:23:47;102846.53;;;2.15;75.85
66887;BME280;67239;51.680;5.976;2023-01-28T03:26:43;102837.06;;;2.17;75.54
66887;BME280;67239;51.680;5.976;2023-01-28T03:29:35;102834.22;;;2.11;75.87
66887;BME280;67239;51.680;5.976;2023-01-28T03:32:24;102848.13;;;2.12;75.35
66887;BME280;67239;51.680;5.976;2023-01-28T03:35:14;102847.19;;;2.10;75.17
66887;BME280;67239;51.680;5.976;2023-01-28T03:38:04;102847.06;;;2.07;75.18
66887;BME280;67239;51.680;5.976;2023-01-28T03:40:58;102850.44;;;2.04;75.14
66887;BME280;67239;51.680;5.976;2023-01-28T03:43:30;102850.41;;;2.03;74.77
66887;BME280;67239;51.680;5.976;2023-01-28T03:45:57;102855.53;;;2.01;74.77
66887;BME280;67239;51.680;5.976;2023-01-28T03:48:27;102855.47;;;1.99;74.65
66887;BME280;67239;51.680;5.976;2023-01-28T03:50:55;102851.97;;;1.99;74.70
66887;BME280;67239;51.680;5.976;2023-01-28T03:53:28;102859.72;;;1.97;74.84
66887;BME280;67239;51.680;5.976;2023-01-28T03:55:56;102851.88;;;1.96;74.46
66887;BME280;67239;51.680;5.976;2023-01-28T03:58:24;102854.53;;;1.97;73.63
66887;BME280;67239;51.680;5.976;2023-01-28T04:01:27;102857.00;;;1.94;73.56
66887;BME280;67239;51.680;5.976;2023-01-28T04:03:55;102858.75;;;1.94;73.47
66887;BME280;67239;51.680;5.976;2023-01-28T04:06:26;102864.63;;;1.90;73.77
66887;BME280;67239;51.680;5.976;2023-01-28T04:09:02;102862.88;;;1.89;73.75
66887;BME280;67239;51.680;5.976;2023-01-28T04:11:46;102868.78;;;1.84;73.92
66887;BME280;67239;51.680;5.976;2023-01-28T04:14:20;102875.69;;;1.84;73.56
66887;BME280;67239;51.680;5.976;2023-01-28T04:16:54;102883.50;;;1.84;73.82
66887;BME280;67239;51.680;5.976;2023-01-28T04:19:24;102882.66;;;1.85;73.21
66887;BME280;67239;51.680;5.976;2023-01-28T04:21:53;102883.56;;;1.85;72.59
66887;BME280;67239;51.680;5.976;2023-01-28T04:24:21;102877.38;;;1.82;72.39
66887;BME280;67239;51.680;5.976;2023-01-28T04:26:49;102874.94;;;1.86;71.39
66887;BME280;67239;51.680;5.976;2023-01-28T04:29:17;102880.19;;;1.88;70.84
66887;BME280;67239;51.680;5.976;2023-01-28T04:31:44;102881.16;;;1.90;70.07
66887;BME280;67239;51.680;5.976;2023-01-28T04:34:20;102876.72;;;1.88;69.34
66887;BME280;67239;51.680;5.976;2023-01-28T04:37:03;102873.16;;;1.85;69.19
66887;BME280;67239;51.680;5.976;2023-01-28T04:39:42;102871.41;;;1.84;69.10
66887;BME280;67239;51.680;5.976;2023-01-28T04:42:19;102872.16;;;1.82;68.93
66887;BME280;67239;51.680;5.976;2023-01-28T04:45:22;102875.41;;;1.76;69.56
66887;BME280;67239;51.680;5.976;2023-01-28T04:47:58;102877.19;;;1.77;69.41
66887;BME280;67239;51.680;5.976;2023-01-28T04:50:37;102868.34;;;1.74;69.71
66887;BME280;67239;51.680;5.976;2023-01-28T04:53:11;102872.16;;;1.82;68.63
66887;BME280;67239;51.680;5.976;2023-01-28T04:55:50;102879.16;;;1.83;68.43
66887;BME280;67239;51.680;5.976;2023-01-28T04:58:18;102881.63;;;1.80;69.15
66887;BME280;67239;51.680;5.976;2023-01-28T05:00:58;102881.53;;;1.78;69.61
66887;BME280;67239;51.680;5.976;2023-01-28T05:03:26;102880.72;;;1.79;69.69
66887;BME280;67239;51.680;5.976;2023-01-28T05:05:54;102879.91;;;1.80;69.23
66887;BME280;67239;51.680;5.976;2023-01-28T05:08:31;102882.44;;;1.79;69.35
66887;BME280;67239;51.680;5.976;2023-01-28T05:10:58;102882.56;;;1.82;68.38
66887;BME280;67239;51.680;5.976;2023-01-28T05:13:25;102880.84;;;1.82;67.80
66887;BME280;67239;51.680;5.976;2023-01-28T05:15:52;102877.94;;;1.75;68.25
66887;BME280;67239;51.680;5.976;2023-01-28T05:18:20;102882.13;;;1.71;68.81
66887;BME280;67239;51.680;5.976;2023-01-28T05:21:00;102883.22;;;1.76;68.41
66887;BME280;67239;51.680;5.976;2023-01-28T05:23:28;102883.31;;;1.79;68.24
66887;BME280;67239;51.680;5.976;2023-01-28T05:25:58;102876.16;;;1.74;68.50
66887;BME280;67239;51.680;5.976;2023-01-28T05:28:25;102875.06;;;1.67;68.87
66887;BME280;67239;51.680;5.976;2023-01-28T05:30:52;102883.75;;;1.67;68.86
66887;BME280;67239;51.680;5.976;2023-01-28T05:33:19;102874.97;;;1.65;68.82
66887;BME280;67239;51.680;5.976;2023-01-28T05:35:46;102877.66;;;1.67;68.82
66887;BME280;67239;51.680;5.976;2023-01-28T05:38:19;102866.53;;;1.71;68.19
66887;BME280;67239;51.680;5.976;2023-01-28T05:40:46;102867.19;;;1.65;68.51
66887;BME280;67239;51.680;5.976;2023-01-28T05:43:14;102868.66;;;1.59;68.90
66887;BME280;67239;51.680;5.976;2023-01-28T05:45:45;102876.63;;;1.63;69.09
66887;BME280;67239;51.680;5.976;2023-01-28T05:48:21;102879.91;;;1.58;69.40
66887;BME280;67239;51.680;5.976;2023-01-28T05:51:03;102881.66;;;1.59;69.24
66887;BME280;67239;51.680;5.976;2023-01-28T05:53:37;102891.00;;;1.53;69.35
66887;BME280;67239;51.680;5.976;2023-01-28T05:56:05;102893.53;;;1.52;70.08
66887;BME280;67239;51.680;5.976;2023-01-28T05:58:34;102892.63;;;1.51;70.25
66887;BME280;67239;51.680;5.976;2023-01-28T06:01:02;102895.38;;;1.54;69.97
66887;BME280;67239;51.680;5.976;2023-01-28T06:03:38;102893.59;;;1.53;69.81
66887;BME280;67239;51.680;5.976;2023-01-28T06:06:05;102898.59;;;1.49;70.08
66887;BME280;67239;51.680;5.976;2023-01-28T06:08:32;102899.38;;;1.46;70.12
66887;BME280;67239;51.680;5.976;2023-01-28T06:10:59;102897.53;;;1.44;69.81
66887;BME280;67239;51.680;5.976;2023-01-28T06:13:34;102901.06;;;1.46;69.58
66887;BME280;67239;51.680;5.976;2023-01-28T06:16:22;102895.06;;;1.47;68.91
66887;BME280;67239;51.680;5.976;2023-01-28T06:19:09;102899.00;;;1.37;68.65
66887;BME280;67239;51.680;5.976;2023-01-28T06:21:41;102905.75;;;1.33;68.66
66887;BME280;67239;51.680;5.976;2023-01-28T06:24:10;102898.88;;;1.34;68.46
66887;BME280;67239;51.680;5.976;2023-01-28T06:26:38;102897.88;;;1.30;68.62
66887;BME280;67239;51.680;5.976;2023-01-28T06:29:05;102902.88;;;1.26;68.86
66887;BME280;67239;51.680;5.976;2023-01-28T06:31:32;102904.47;;;1.22;68.65
66887;BME280;67239;51.680;5.976;2023-01-28T06:33:59;102910.66;;;1.26;68.67
66887;BME280;67239;51.680;5.976;2023-01-28T06:36:26;102901.78;;;1.20;68.84
66887;BME280;67239;51.680;5.976;2023-01-28T06:38:56;102905.38;;;1.24;68.99
66887;BME280;67239;51.680;5.976;2023-01-28T06:41:23;102918.38;;;1.24;69.02
66887;BME280;67239;51.680;5.976;2023-01-28T06:43:50;102906.84;;;1.17;69.57
66887;BME280;67239;51.680;5.976;2023-01-28T06:46:18;102905.91;;;1.15;69.99
66887;BME280;67239;51.680;5.976;2023-01-28T06:48:45;102908.56;;;1.17;69.97
66887;BME280;67239;51.680;5.976;2023-01-28T06:51:12;102906.03;;;1.18;69.78
66887;BME280;67239;51.680;5.976;2023-01-28T06:53:39;102910.34;;;1.18;69.82
66887;BME280;67239;51.680;5.976;2023-01-28T06:56:12;102911.31;;;1.20;69.67
66887;BME280;67239;51.680;5.976;2023-01-28T06:58:39;102913.72;;;1.15;70.22
66887;BME280;67239;51.680;5.976;2023-01-28T07:01:07;102909.34;;;1.14;70.34
66887;BME280;67239;51.680;5.976;2023-01-28T07:03:38;102904.97;;;1.13;70.79
66887;BME280;67239;51.680;5.976;2023-01-28T07:06:05;102910.22;;;1.15;71.14
66887;BME280;67239;51.680;5.976;2023-01-28T07:08:32;102912.03;;;1.17;71.23
66887;BME280;67239;51.680;5.976;2023-01-28T07:11:03;102914.78;;;1.20;71.22
66887;BME280;67239;51.680;5.976;2023-01-28T07:13:31;102919.97;;;1.20;70.94
66887;BME280;67239;51.680;5.976;2023-01-28T07:15:58;102921.69;;;1.20;71.16
66887;BME280;67239;51.680;5.976;2023-01-28T07:18:26;102918.19;;;1.19;71.07
66887;BME280;67239;51.680;5.976;2023-01-28T07:20:56;102926.06;;;1.21;71.15
66887;BME280;67239;51.680;5.976;2023-01-28T07:23:23;102920.78;;;1.19;71.07
66887;BME280;67239;51.680;5.976;2023-01-28T07:25:50;102933.97;;;1.24;70.58
66887;BME280;67239;51.680;5.976;2023-01-28T07:28:17;102939.94;;;1.21;71.45
66887;BME280;67239;51.680;5.976;2023-01-28T07:30:50;102948.78;;;1.46;73.89
66887;BME280;67239;51.680;5.976;2023-01-28T07:33:19;102946.16;;;1.67;73.14
66887;BME280;67239;51.680;5.976;2023-01-28T07:35:46;102948.78;;;1.69;71.39
66887;BME280;67239;51.680;5.976;2023-01-28T07:38:14;102952.88;;;1.62;70.58
66887;BME280;67239;51.680;5.976;2023-01-28T07:40:41;102955.03;;;1.51;70.82
66887;BME280;67239;51.680;5.976;2023-01-28T07:43:09;102943.88;;;1.54;72.62
66887;BME280;67239;51.680;5.976;2023-01-28T07:45:41;102953.31;;;1.73;72.37
66887;BME280;67239;51.680;5.976;2023-01-28T07:48:11;102947.66;;;1.83;71.79
66887;BME280;67239;51.680;5.976;2023-01-28T07:50:40;102949.44;;;1.84;70.99
66887;BME280;67239;51.680;5.976;2023-01-28T07:53:10;102949.06;;;1.75;70.47
66887;BME280;67239;51.680;5.976;2023-01-28T07:55:38;102955.84;;;1.72;70.34
66887;BME280;67239;51.680;5.976;2023-01-28T07:58:07;102955.69;;;1.67;70.16
66887;BME280;67239;51.680;5.976;2023-01-28T08:00:37;102964.16;;;1.63;71.02
66887;BME280;67239;51.680;5.976;2023-01-28T08:03:09;102969.56;;;1.67;71.21
66887;BME280;67239;51.680;5.976;2023-01-28T08:05:47;102976.72;;;1.73;71.06
66887;BME280;67239;51.680;5.976;2023-01-28T08:08:18;102972.16;;;1.67;70.81
66887;BME280;67239;51.680;5.976;2023-01-28T08:10:45;102975.44;;;1.63;70.83
66887;BME280;67239;51.680;5.976;2023-01-28T08:13:16;102969.38;;;1.63;69.98
66887;BME280;67239;51.680;5.976;2023-01-28T08:15:45;102968.09;;;1.53;69.46
66887;BME280;67239;51.680;5.976;2023-01-28T08:18:14;102966.97;;;1.46;69.84
66887;BME280;67239;51.680;5.976;2023-01-28T08:20:43;102984.84;;;1.38;70.60
66887;BME280;67239;51.680;5.976;2023-01-28T08:23:14;103001.44;;;1.42;70.40
66887;BME280;67239;51.680;5.976;2023-01-28T08:25:44;102994.28;;;1.36;70.38
66887;BME280;67239;51.680;5.976;2023-01-28T08:28:14;102998.59;;;1.36;70.32
66887;BME280;67239;51.680;5.976;2023-01-28T08:30:43;103009.94;;;1.38;69.81
66887;BME280;67239;51.680;5.976;2023-01-28T08:33:13;103009.81;;;1.35;69.98
66887;BME280;67239;51.680;5.976;2023-01-28T08:35:42;103007.22;;;1.35;69.97
66887;BME280;67239;51.680;5.976;2023-01-28T08:38:12;103010.78;;;1.37;69.73
66887;BME280;67239;51.680;5.976;2023-01-28T08:40:49;103015.06;;;1.36;69.54
66887;BME280;67239;51.680;5.976;2023-01-28T08:43:21;103018.63;;;1.38;69.17
66887;BME280;67239;51.680;5.976;2023-01-28T08:45:50;103013.28;;;1.35;69.50
66887;BME280;67239;51.680;5.976;2023-01-28T08:48:18;103018.56;;;1.37;68.81
66887;BME280;67239;51.680;5.976;2023-01-28T08:50:46;103015.00;;;1.35;69.19
66887;BME280;67239;51.680;5.976;2023-01-28T08:53:16;103026.38;;;1.37;69.04
66887;BME280;67239;51.680;5.976;2023-01-28T08:55:46;103024.66;;;1.37;69.40
66887;BME280;67239;51.680;5.976;2023-01-28T08:58:16;103031.75;;;1.42;69.03
66887;BME280;67239;51.680;5.976;2023-01-28T09:00:44;103040.44;;;1.42;68.89
66887;BME280;67239;51.680;5.976;2023-01-28T09:03:13;103037.69;;;1.39;69.22
66887;BME280;67239;51.680;5.976;2023-01-28T09:05:41;103035.88;;;1.36;69.77
66887;BME280;67239;51.680;5.976;2023-01-28T09:08:13;103032.69;;;1.44;69.93
66887;BME280;67239;51.680;5.976;2023-01-28T09:10:42;103038.22;;;1.51;69.51
66887;BME280;67239;51.680;5.976;2023-01-28T09:13:12;103047.94;;;1.55;68.98
66887;BME280;67239;51.680;5.976;2023-01-28T09:15:42;103048.25;;;1.63;68.88
66887;BME280;67239;51.680;5.976;2023-01-28T09:18:10;103051.75;;;1.64;69.29
66887;BME280;67239;51.680;5.976;2023-01-28T09:20:37;103048.53;;;1.69;69.60
66887;BME280;67239;51.680;5.976;2023-01-28T09:23:07;103047.94;;;1.77;69.15
66887;BME280;67239;51.680;5.976;2023-01-28T09:25:35;103054.16;;;1.80;68.99
66887;BME280;67239;51.680;5.976;2023-01-28T09:28:04;103054.44;;;1.86;68.14
66887;BME280;67239;51.680;5.976;2023-01-28T09:30:32;103043.84;;;1.82;68.02
66887;BME280;67239;51.680;5.976;2023-01-28T09:33:04;103045.47;;;1.80;68.08
66887;BME280;67239;51.680;5.976;2023-01-28T09:35:33;103043.66;;;1.77;67.98
66887;BME280;67239;51.680;5.976;2023-01-28T09:38:01;103047.06;;;1.76;67.66
66887;BME280;67239;51.680;5.976;2023-01-28T09:40:39;103044.47;;;1.76;67.46
66887;BME280;67239;51.680;5.976;2023-01-28T09:43:28;103047.00;;;1.75;67.62
66887;BME280;67239;51.680;5.976;2023-01-28T09:46:14;103055.63;;;1.74;67.74
66887;BME280;67239;51.680;5.976;2023-01-28T09:48:50;103050.34;;;1.72;67.86
66887;BME280;67239;51.680;5.976;2023-01-28T09:53:54;103067.97;;;1.79;67.32
66887;BME280;67239;51.680;5.976;2023-01-28T09:56:30;103061.91;;;1.79;67.57
66887;BME280;67239;51.680;5.976;2023-01-28T09:59:16;103074.97;;;1.80;67.09
66887;BME280;67239;51.680;5.976;2023-01-28T10:02:12;103068.91;;;1.80;67.00
66887;BME280;67239;51.680;5.976;2023-01-28T10:05:06;103071.22;;;1.74;67.42
66887;BME280;67239;51.680;5.976;2023-01-28T10:14:00;103082.66;;;1.77;67.36
66887;BME280;67239;51.680;5.976;2023-01-28T10:16:58;103083.41;;;1.75;67.62
66887;BME280;67239;51.680;5.976;2023-01-28T10:19:59;103083.41;;;1.75;67.58
66887;BME280;67239;51.680;5.976;2023-01-28T10:22:50;103080.69;;;1.72;67.64
66887;BME280;67239;51.680;5.976;2023-01-28T10:25:40;103092.72;;;1.69;68.12
66887;BME280;67239;51.680;5.976;2023-01-28T10:28:25;103092.88;;;1.73;67.67
66887;BME280;67239;51.680;5.976;2023-01-28T10:30:55;103090.06;;;1.68;67.85
66887;BME280;67239;51.680;5.976;2023-01-28T10:33:34;103078.81;;;1.69;68.31
66887;BME280;67239;51.680;5.976;2023-01-28T10:36:03;103072.13;;;1.74;67.94
66887;BME280;67239;51.680;5.976;2023-01-28T10:38:31;103069.56;;;1.76;67.99
66887;BME280;67239;51.680;5.976;2023-01-28T10:41:01;103079.16;;;1.77;67.99
66887;BME280;67239;51.680;5.976;2023-01-28T10:43:33;103075.69;;;1.76;68.31
66887;BME280;67239;51.680;5.976;2023-01-28T10:46:19;103069.84;;;1.82;67.90
66887;BME280;67239;51.680;5.976;2023-01-28T10:48:57;103076.75;;;1.81;67.94
66887;BME280;67239;51.680;5.976;2023-01-28T10:51:32;103070.69;;;1.81;68.17
66887;BME280;67239;51.680;5.976;2023-01-28T10:54:01;103066.53;;;1.86;68.03
66887;BME280;67239;51.680;5.976;2023-01-28T10:56:31;103063.31;;;1.92;67.76
66887;BME280;67239;51.680;5.976;2023-01-28T10:59:26;103060.66;;;1.90;67.57
66887;BME280;67239;51.680;5.976;2023-01-28T11:01:59;103070.53;;;1.99;67.02
66887;BME280;67239;51.680;5.976;2023-01-28T11:04:34;103069.22;;;1.88;67.67
66887;BME280;67239;51.680;5.976;2023-01-28T11:07:16;103061.28;;;1.84;68.03
66887;BME280;67239;51.680;5.976;2023-01-28T11:09:48;103060.47;;;1.85;68.13
66887;BME280;67239;51.680;5.976;2023-01-28T11:12:22;103061.34;;;1.86;68.58
66887;BME280;67239;51.680;5.976;2023-01-28T11:14:56;103060.78;;;1.93;68.58
66887;BME280;67239;51.680;5.976;2023-01-28T11:17:33;103044.69;;;2.04;67.97
66887;BME280;67239;51.680;5.976;2023-01-28T11:20:10;103032.63;;;2.06;67.45
66887;BME280;67239;51.680;5.976;2023-01-28T11:22:45;103031.94;;;2.10;67.27
66887;BME280;67239;51.680;5.976;2023-01-28T11:25:30;103043.31;;;2.12;67.66
66887;BME280;67239;51.680;5.976;2023-01-28T11:28:00;103034.09;;;2.20;67.10
66887;BME280;67239;51.680;5.976;2023-01-28T11:30:33;103023.72;;;2.22;67.22
66887;BME280;67239;51.680;5.976;2023-01-28T11:33:21;103013.50;;;2.26;67.64
66887;BME280;67239;51.680;5.976;2023-01-28T11:36:04;102997.31;;;2.33;67.84
66887;BME280;67239;51.680;5.976;2023-01-28T11:38:50;103002.97;;;2.46;67.68
66887;BME280;67239;51.680;5.976;2023-01-28T11:41:48;103015.63;;;2.59;67.92
66887;BME280;67239;51.680;5.976;2023-01-28T11:44:17;103010.75;;;2.69;67.08
66887;BME280;67239;51.680;5.976;2023-01-28T11:52:57;103003.00;;;2.70;66.82
66887;BME280;67239;51.680;5.976;2023-01-28T11:55:57;102996.41;;;2.80;67.49
66887;BME280;67239;51.680;5.976;2023-01-28T11:58:41;102975.84;;;2.88;67.05
66887;BME280;67239;51.680;5.976;2023-01-28T12:01:35;102955.22;;;2.94;67.62
66887;BME280;67239;51.680;5.976;2023-01-28T12:27:49;102941.47;;;3.50;64.45
66887;BME280;67239;51.680;5.976;2023-01-28T12:42:27;102947.28;;;3.42;64.02
66887;BME280;67239;51.680;5.976;2023-01-28T12:45:12;102952.81;;;3.52;63.87
66887;BME280;67239;51.680;5.976;2023-01-28T12:47:50;102953.97;;;3.60;64.69
66887;BME280;67239;51.680;5.976;2023-01-28T12:50:30;102951.66;;;3.69;65.08
66887;BME280;67239;51.680;5.976;2023-01-28T12:53:13;102964.94;;;3.77;65.37
66887;BME280;67239;51.680;5.976;2023-01-28T12:55:55;102965.06;;;3.82;63.93
66887;BME280;67239;51.680;5.976;2023-01-28T12:58:42;102962.03;;;3.68;63.83
66887;BME280;67239;51.680;5.976;2023-01-28T13:01:23;102956.22;;;3.49;63.93
66887;BME280;67239;51.680;5.976;2023-01-28T13:04:04;102947.91;;;3.34;64.45
66887;BME280;67239;51.680;5.976;2023-01-28T13:06:46;102955.56;;;3.29;64.70
66887;BME280;67239;51.680;5.976;2023-01-28T13:09:23;102953.94;;;3.33;65.47
66887;BME280;67239;51.680;5.976;2023-01-28T13:11:56;102956.75;;;3.39;65.37
66887;BME280;67239;51.680;5.976;2023-01-28T13:14:29;102957.03;;;3.48;65.36
66887;BME280;67239;51.680;5.976;2023-01-28T13:17:11;102941.00;;;3.63;65.03
66887;BME280;67239;51.680;5.976;2023-01-28T13:19:51;102944.84;;;3.75;64.77
66887;BME280;67239;51.680;5.976;2023-01-28T13:22:34;102954.75;;;3.85;63.52
66887;BME280;67239;51.680;5.976;2023-01-28T13:25:22;102945.63;;;3.99;63.82
66887;BME280;67239;51.680;5.976;2023-01-28T13:28:00;102951.28;;;4.13;63.65
66887;BME280;67239;51.680;5.976;2023-01-28T13:30:35;102944.25;;;4.11;62.66
66887;BME280;67239;51.680;5.976;2023-01-28T13:33:29;102947.53;;;4.05;62.71
66887;BME280;67239;51.680;5.976;2023-01-28T13:36:02;102939.50;;;3.99;62.09
66887;BME280;67239;51.680;5.976;2023-01-28T13:38:34;102941.41;;;3.76;62.32
66887;BME280;67239;51.680;5.976;2023-01-28T13:41:02;102939.16;;;3.59;63.28
66887;BME280;67239;51.680;5.976;2023-01-28T13:43:40;102925.13;;;3.55;63.68
66887;BME280;67239;51.680;5.976;2023-01-28T13:46:12;102910.91;;;3.46;63.19
66887;BME280;67239;51.680;5.976;2023-01-28T13:48:55;102912.06;;;3.28;63.76
66887;BME280;67239;51.680;5.976;2023-01-28T13:51:30;102912.59;;;3.18;64.44
66887;BME280;67239;51.680;5.976;2023-01-28T13:54:06;102895.34;;;3.21;64.61
66887;BME280;67239;51.680;5.976;2023-01-28T14:06:50;102870.66;;;3.37;64.97
66887;BME280;67239;51.680;5.976;2023-01-28T14:09:47;102869.84;;;3.40;65.13
66887;BME280;67239;51.680;5.976;2023-01-28T14:17:51;102891.91;;;3.50;65.77
66887;BME280;67239;51.680;5.976;2023-01-28T14:23:00;102902.72;;;3.62;65.97
66887;BME280;67239;51.680;5.976;2023-01-28T14:25:38;102907.16;;;3.65;65.73
66887;BME280;67239;51.680;5.976;2023-01-28T14:28:10;102903.66;;;3.64;65.77
66887;BME280;67239;51.680;5.976;2023-01-28T14:30:56;102902.81;;;3.65;65.23
66887;BME280;67239;51.680;5.976;2023-01-28T14:33:32;102907.09;;;3.63;65.73
66887;BME280;67239;51.680;5.976;2023-01-28T14:35:59;102904.56;;;3.65;65.70
66887;BME280;67239;51.680;5.976;2023-01-28T14:38:26;102913.25;;;3.65;65.60
66887;BME280;67239;51.680;5.976;2023-01-28T14:40:54;102916.78;;;3.66;65.56
66887;BME280;67239;51.680;5.976;2023-01-28T14:43:24;102915.00;;;3.65;65.70
66887;BME280;67239;51.680;5.976;2023-01-28T14:46:06;102909.81;;;3.66;65.84
66887;BME280;67239;51.680;5.976;2023-01-28T14:49:07;102921.91;;;3.64;66.04
66887;BME280;67239;51.680;5.976;2023-01-28T14:57:57;102935.41;;;3.51;66.17
66887;BME280;67239;51.680;5.976;2023-01-28T15:00:32;102937.00;;;3.47;66.08
66887;BME280;67239;51.680;5.976;2023-01-28T15:03:16;102927.38;;;3.45;66.09
66887;BME280;67239;51.680;5.976;2023-01-28T15:06:24;102921.91;;;3.37;66.37
66887;BME280;67239;51.680;5.976;2023-01-28T15:09:05;102919.97;;;3.31;66.47
66887;BME280;67239;51.680;5.976;2023-01-28T15:11:37;102932.03;;;3.28;66.27
66887;BME280;67239;51.680;5.976;2023-01-28T15:14:13;102916.16;;;3.20;66.38
66887;BME280;67239;51.680;5.976;2023-01-28T15:16:51;102920.25;;;3.13;66.61